createdAt,value
2018-05-01T00:00:38.282Z,97688.42
2018-05-01T00:03:05.676Z,97696.78
2018-05-01T00:05:32.087Z,97695.46
2018-05-01T00:07:58.441Z,97695.12
2018-05-01T00:10:24.879Z,97694.27
2018-05-01T00:12:51.262Z,97692.54
2018-05-01T00:15:17.678Z,97700.86
2018-05-01T00:17:44.891Z,97701.36
2018-05-01T00:20:11.398Z,97699.25
2018-05-01T00:22:37.795Z,97704.33
2018-05-01T00:25:04.988Z,97697.02
2018-05-01T00:27:31.378Z,97706.72
2018-05-01T00:29:58.562Z,97714.44
2018-05-01T00:32:25.040Z,97706.66
2018-05-01T00:34:52.195Z,97710.28
2018-05-01T00:37:19.348Z,97710.81
2018-05-01T00:39:46.578Z,97711.77
2018-05-01T00:42:13.773Z,97714.70
2018-05-01T00:44:40.254Z,97706.84
2018-05-01T00:47:07.416Z,97702.21
2018-05-01T00:49:34.078Z,97707.13
2018-05-01T00:52:01.237Z,97710.05
2018-05-01T00:54:28.493Z,97712.61
2018-05-01T00:56:55.613Z,97712.70
2018-05-01T00:59:23.474Z,97705.30
2018-05-01T01:01:49.866Z,97707.87
2018-05-01T01:04:16.601Z,97708.56
2018-05-01T01:06:43.078Z,97712.44
2018-05-01T01:09:09.669Z,97707.70
2018-05-01T01:11:36.115Z,97706.97
2018-05-01T01:14:02.513Z,97712.33
2018-05-01T01:16:28.903Z,97713.64
2018-05-01T01:18:56.137Z,97710.84
2018-05-01T01:21:22.666Z,97710.77
2018-05-01T01:23:49.147Z,97711.45
2018-05-01T01:26:16.249Z,97720.63
2018-05-01T01:28:42.731Z,97716.73
2018-05-01T01:31:09.906Z,97724.02
2018-05-01T01:33:36.289Z,97734.09
2018-05-01T01:36:02.671Z,97734.69
2018-05-01T01:38:28.804Z,97739.30
2018-05-01T01:40:54.957Z,97745.75
2018-05-01T01:43:21.073Z,97759.38
2018-05-01T01:45:47.194Z,97767.66
2018-05-01T01:48:13.352Z,97762.19
2018-05-01T01:50:39.719Z,97762.06
2018-05-01T01:53:06.625Z,97774.48
2018-05-01T01:55:32.727Z,97772.14
2018-05-01T01:57:58.926Z,97771.59
2018-05-01T02:00:25.048Z,97770.32
2018-05-01T02:02:51.162Z,97776.79
2018-05-01T02:05:17.606Z,97785.52
2018-05-01T02:07:43.689Z,97796.59
2018-05-01T02:10:10.569Z,97794.70
2018-05-01T02:12:37.449Z,97799.14
2018-05-01T02:15:03.569Z,97813.05
2018-05-01T02:17:29.799Z,97812.72
2018-05-01T02:19:55.938Z,97813.31
2018-05-01T02:22:22.125Z,97828.19
2018-05-01T02:24:49.005Z,97835.50
2018-05-01T02:27:15.265Z,97825.75
2018-05-01T02:29:42.443Z,97822.36
2018-05-01T02:32:09.304Z,97831.25
2018-05-01T02:34:35.651Z,97827.19
2018-05-01T02:37:01.848Z,97830.08
2018-05-01T02:39:27.991Z,97838.11
2018-05-01T02:41:54.093Z,97837.27
2018-05-01T02:44:20.220Z,97839.62
2018-05-01T02:46:47.084Z,97841.08
2018-05-01T02:49:13.192Z,97841.91
2018-05-01T02:51:39.313Z,97845.69
2018-05-01T02:54:06.258Z,97855.24
2018-05-01T02:56:33.181Z,97854.92
2018-05-01T02:58:59.456Z,97852.31
2018-05-01T03:01:25.745Z,97852.95
2018-05-01T03:03:51.841Z,97867.22
2018-05-01T03:06:17.991Z,97858.05
2018-05-01T03:08:45.820Z,97859.33
2018-05-01T03:11:12.216Z,97861.27
2018-05-01T03:13:38.428Z,97855.85
2018-05-01T03:16:05.610Z,97854.41
2018-05-01T03:18:32.584Z,97860.16
2018-05-01T03:20:58.744Z,97850.12
2018-05-01T03:23:25.851Z,97863.53
2018-05-01T03:25:52.018Z,97862.33
2018-05-01T03:28:19.051Z,97858.57
2018-05-01T03:30:45.227Z,97855.23
2018-05-01T03:33:11.361Z,97862.70
2018-05-01T03:35:37.551Z,97861.71
2018-05-01T03:38:04.474Z,97867.54
2018-05-01T03:40:30.615Z,97868.78
2018-05-01T03:42:57.500Z,97861.50
2018-05-01T03:45:23.630Z,97856.06
2018-05-01T03:47:49.788Z,97861.59
2018-05-01T03:50:15.990Z,97870.95
2018-05-01T03:52:42.162Z,97866.08
2018-05-01T03:55:09.048Z,97874.64
2018-05-01T03:57:35.243Z,97874.23
2018-05-01T04:00:01.494Z,97879.22
2018-05-01T04:02:27.632Z,97871.67
2018-05-01T04:04:53.867Z,97872.53
2018-05-01T04:07:20.047Z,97875.65
2018-05-01T04:09:47.125Z,97868.03
2018-05-01T04:12:13.368Z,97888.84
2018-05-01T04:14:39.563Z,97882.06
2018-05-01T04:17:05.801Z,97892.00
2018-05-01T04:19:31.917Z,97892.41
2018-05-01T04:21:58.119Z,97899.64
2018-05-01T04:24:24.289Z,97901.47
2018-05-01T04:26:50.509Z,97909.28
2018-05-01T04:29:16.753Z,97913.47
2018-05-01T04:31:43.086Z,97917.98
2018-05-01T04:34:09.347Z,97929.53
2018-05-01T04:36:35.495Z,97931.42
2018-05-01T04:39:02.121Z,97940.23
2018-05-01T04:41:28.270Z,97942.70
2018-05-01T04:43:54.545Z,97944.75
2018-05-01T04:46:20.720Z,97950.91
2018-05-01T04:48:47.601Z,97957.17
2018-05-01T04:51:13.801Z,97972.66
2018-05-01T04:53:40.717Z,97966.89
2018-05-01T04:56:06.893Z,97970.33
2018-05-01T04:58:33.047Z,97962.03
2018-05-01T05:00:59.212Z,97969.09
2018-05-01T05:03:25.381Z,97971.08
2018-05-01T05:05:51.801Z,97972.73
2018-05-01T05:08:17.946Z,97979.02
2018-05-01T05:10:44.112Z,97979.56
2018-05-01T05:13:10.305Z,97989.37
2018-05-01T05:15:36.505Z,97996.23
2018-05-01T05:18:02.786Z,97995.66
2018-05-01T05:20:28.932Z,97997.72
2018-05-01T05:22:55.064Z,97996.77
2018-05-01T05:25:21.227Z,98006.45
2018-05-01T05:27:47.498Z,98007.78
2018-05-01T05:30:13.707Z,98022.53
2018-05-01T05:32:39.895Z,98007.08
2018-05-01T05:35:06.053Z,98003.87
2018-05-01T05:37:32.205Z,98004.38
2018-05-01T05:39:58.419Z,98016.77
2018-05-01T05:42:24.588Z,98018.83
2018-05-01T05:44:51.475Z,98018.24
2018-05-01T05:47:17.659Z,98023.80
2018-05-01T05:49:44.860Z,98025.32
2018-05-01T05:52:11.025Z,98026.28
2018-05-01T05:54:37.220Z,98032.55
2018-05-01T05:57:03.383Z,98036.92
2018-05-01T05:59:30.283Z,98038.45
2018-05-01T06:01:56.448Z,98037.53
2018-05-01T06:04:22.648Z,98036.03
2018-05-01T06:06:48.815Z,98043.45
2018-05-01T06:09:15.722Z,98044.14
2018-05-01T06:11:41.876Z,98048.49
2018-05-01T06:14:08.932Z,98053.83
2018-05-01T06:16:35.961Z,98063.89
2018-05-01T06:19:02.440Z,98068.11
2018-05-01T06:21:28.589Z,98069.95
2018-05-01T06:23:54.774Z,98078.99
2018-05-01T06:26:21.723Z,98079.85
2018-05-01T06:28:48.683Z,98083.35
2018-05-01T06:31:14.961Z,98094.61
2018-05-01T06:33:41.768Z,98095.87
2018-05-01T06:36:07.996Z,98105.84
2018-05-01T06:38:34.178Z,98107.02
2018-05-01T06:41:01.083Z,98101.55
2018-05-01T06:43:27.247Z,98105.05
2018-05-01T06:45:53.464Z,98099.98
2018-05-01T06:48:19.905Z,98102.64
2018-05-01T06:50:46.795Z,98098.70
2018-05-01T06:53:13.004Z,98101.30
2018-05-01T06:55:39.144Z,98097.52
2018-05-01T06:58:05.299Z,98104.08
2018-05-01T07:00:31.436Z,98106.43
2018-05-01T07:02:57.570Z,98110.80
2018-05-01T07:05:24.510Z,98106.81
2018-05-01T07:07:50.635Z,98115.25
2018-05-01T07:10:16.957Z,98105.88
2018-05-01T07:12:43.063Z,98112.87
2018-05-01T07:15:09.349Z,98114.05
2018-05-01T07:17:36.239Z,98114.14
2018-05-01T07:20:03.410Z,98106.25
2018-05-01T07:22:31.844Z,98118.98
2018-05-01T07:24:58.163Z,98121.19
2018-05-01T07:27:24.355Z,98117.92
2018-05-01T07:29:51.283Z,98115.33
2018-05-01T07:32:17.421Z,98120.84
2018-05-01T07:34:44.342Z,98127.58
2018-05-01T07:37:10.764Z,98128.36
2018-05-01T07:39:36.931Z,98128.30
2018-05-01T07:42:04.875Z,98126.82
2018-05-01T07:44:31.373Z,98129.81
2018-05-01T07:46:57.591Z,98134.45
2018-05-01T07:49:24.858Z,98134.50
2018-05-01T07:51:51.001Z,98138.95
2018-05-01T07:54:17.207Z,98129.70
2018-05-01T07:56:43.514Z,98142.68
2018-05-01T07:59:10.419Z,98137.99
2018-05-01T08:01:36.812Z,98131.70
2018-05-01T08:04:03.570Z,98129.05
2018-05-01T08:06:29.843Z,98131.83
2018-05-01T08:08:56.036Z,98120.59
2018-05-01T08:11:22.266Z,98122.98
2018-05-01T08:13:48.417Z,98125.50
2018-05-01T08:16:15.661Z,98127.17
2018-05-01T08:18:41.846Z,98132.66
2018-05-01T08:21:08.842Z,98123.56
2018-05-01T08:23:35.000Z,98126.83
2018-05-01T08:26:01.865Z,98129.20
2018-05-01T08:28:28.040Z,98119.43
2018-05-01T08:30:54.179Z,98118.72
2018-05-01T08:33:21.111Z,98122.48
2018-05-01T08:35:47.349Z,98127.71
2018-05-01T08:38:13.557Z,98125.48
2018-05-01T08:40:39.725Z,98135.77
2018-05-01T08:43:06.620Z,98131.20
2018-05-01T08:45:32.959Z,98130.25
2018-05-01T08:47:59.994Z,98137.32
2018-05-01T08:50:26.269Z,98134.09
2018-05-01T08:52:53.168Z,98152.27
2018-05-01T08:55:19.384Z,98148.61
2018-05-01T08:57:45.518Z,98155.98
2018-05-01T09:00:11.692Z,98153.86
2018-05-01T09:02:38.598Z,98155.11
2018-05-01T09:05:05.341Z,98162.93
2018-05-01T09:07:31.551Z,98176.91
2018-05-01T09:09:57.784Z,98176.74
2018-05-01T09:12:24.000Z,98178.98
2018-05-01T09:14:50.141Z,98183.36
2018-05-01T09:17:16.341Z,98180.48
2018-05-01T09:19:42.493Z,98173.63
2018-05-01T09:22:08.700Z,98178.89
2018-05-01T09:24:34.955Z,98176.20
2018-05-01T09:27:01.088Z,98176.05
2018-05-01T09:29:27.931Z,98184.45
2018-05-01T09:31:54.357Z,98184.36
2018-05-01T09:34:20.728Z,98188.98
2018-05-01T09:36:47.625Z,98190.23
2018-05-01T09:39:13.791Z,98183.53
2018-05-01T09:41:40.800Z,98178.34
2018-05-01T09:44:07.086Z,98181.21
2018-05-01T09:46:34.016Z,98178.38
2018-05-01T09:49:00.920Z,98181.45
2018-05-01T09:51:27.107Z,98180.92
2018-05-01T09:53:54.310Z,98178.58
2018-05-01T09:56:20.858Z,98177.95
2018-05-01T09:58:48.475Z,98182.13
2018-05-01T10:01:14.980Z,98188.88
2018-05-01T10:03:42.582Z,98188.25
2018-05-01T10:06:09.076Z,98187.95
2018-05-01T10:08:36.440Z,98186.62
2018-05-01T10:11:03.612Z,98182.12
2018-05-01T10:13:30.073Z,98173.24
2018-05-01T10:15:56.494Z,98162.47
2018-05-01T10:18:22.953Z,98169.53
2018-05-01T10:20:49.519Z,98168.43
2018-05-01T10:23:16.945Z,98167.58
2018-05-01T10:25:43.610Z,98161.69
2018-05-01T10:28:10.716Z,98157.63
2018-05-01T10:30:37.469Z,98164.64
2018-05-01T10:33:04.707Z,98166.85
2018-05-01T10:35:31.231Z,98162.41
2018-05-01T10:37:57.675Z,98155.63
2018-05-01T10:40:24.342Z,98150.89
2018-05-01T10:42:50.814Z,98150.24
2018-05-01T10:45:17.856Z,98151.95
2018-05-01T10:47:44.335Z,98150.59
2018-05-01T10:50:12.224Z,98161.55
2018-05-01T10:52:38.636Z,98156.87
2018-05-01T10:55:05.367Z,98161.69
2018-05-01T10:57:32.034Z,98144.88
2018-05-01T10:59:58.539Z,98150.56
2018-05-01T11:02:25.157Z,98142.48
2018-05-01T11:04:51.627Z,98141.25
2018-05-01T11:07:18.814Z,98133.63
2018-05-01T11:09:45.285Z,98136.78
2018-05-01T11:12:12.519Z,98138.78
2018-05-01T11:14:39.083Z,98138.53
2018-05-01T11:17:05.581Z,98149.50
2018-05-01T11:19:32.040Z,98157.03
2018-05-01T11:21:59.476Z,98153.09
2018-05-01T11:24:26.264Z,98152.63
2018-05-01T11:26:53.491Z,98161.84
2018-05-01T11:29:19.942Z,98164.91
2018-05-01T11:31:46.641Z,98163.97
2018-05-01T11:34:13.443Z,98158.13
2018-05-01T11:36:41.686Z,98156.52
2018-05-01T11:39:08.244Z,98169.27
2018-05-01T11:41:34.919Z,98165.51
2018-05-01T11:44:01.384Z,98172.74
2018-05-01T11:46:27.910Z,98175.38
2018-05-01T11:48:55.000Z,98187.03
2018-05-01T11:51:21.411Z,98186.52
2018-05-01T11:53:48.440Z,98171.73
2018-05-01T11:56:14.903Z,98173.30
2018-05-01T11:58:41.343Z,98180.92
2018-05-01T12:01:07.917Z,98179.16
2018-05-01T12:03:34.395Z,98180.80
2018-05-01T12:06:00.831Z,98181.88
2018-05-01T12:08:27.291Z,98174.13
2018-05-01T12:10:53.769Z,98177.95
2018-05-01T12:13:20.252Z,98172.67
2018-05-01T12:15:46.691Z,98177.45
2018-05-01T12:18:13.375Z,98181.61
2018-05-01T12:20:40.144Z,98179.14
2018-05-01T12:23:06.593Z,98185.34
2018-05-01T12:25:33.011Z,98173.29
2018-05-01T12:27:59.538Z,98173.38
2018-05-01T12:30:26.013Z,98184.55
2018-05-01T12:32:52.715Z,98172.08
2018-05-01T12:35:19.103Z,98177.93
2018-05-01T12:37:46.279Z,98178.22
2018-05-01T12:40:12.838Z,98174.71
2018-05-01T12:42:39.309Z,98177.52
2018-05-01T12:45:07.741Z,98173.64
2018-05-01T12:47:34.243Z,98168.98
2018-05-01T12:50:01.909Z,98165.89
2018-05-01T12:52:28.490Z,98174.50
2018-05-01T12:54:54.906Z,98167.71
2018-05-01T12:57:21.296Z,98166.17
2018-05-01T12:59:48.528Z,98167.62
2018-05-01T13:02:14.954Z,98155.38
2018-05-01T13:04:41.583Z,98167.56
2018-05-01T13:07:08.255Z,98168.73
2018-05-01T13:09:35.443Z,98172.88
2018-05-01T13:12:01.854Z,98166.82
2018-05-01T13:14:28.353Z,98162.86
2018-05-01T13:16:55.539Z,98151.72
2018-05-01T13:19:21.976Z,98148.23
2018-05-01T13:21:48.510Z,98148.53
2018-05-01T13:24:14.948Z,98135.16
2018-05-01T13:26:41.391Z,98147.61
2018-05-01T13:29:07.910Z,98148.47
2018-05-01T13:31:34.378Z,98140.52
2018-05-01T13:34:01.041Z,98139.75
2018-05-01T13:36:27.457Z,98139.07
2018-05-01T13:38:53.932Z,98134.39
2018-05-01T13:41:21.121Z,98137.05
2018-05-01T13:43:47.598Z,98132.23
2018-05-01T13:46:14.790Z,98132.04
2018-05-01T13:48:41.219Z,98127.22
2018-05-01T13:51:08.447Z,98128.67
2018-05-01T13:53:36.513Z,98135.91
2018-05-01T13:56:03.286Z,98125.30
2018-05-01T13:58:29.701Z,98125.98
2018-05-01T14:00:56.148Z,98124.20
2018-05-01T14:03:22.688Z,98123.36
2018-05-01T14:05:49.193Z,98119.72
2018-05-01T14:08:16.404Z,98121.46
2018-05-01T14:10:42.820Z,98121.67
2018-05-01T14:13:09.288Z,98116.55
2018-05-01T14:15:35.732Z,98108.47
2018-05-01T14:18:02.231Z,98111.63
2018-05-01T14:20:28.663Z,98111.20
2018-05-01T14:22:55.084Z,98108.47
2018-05-01T14:25:21.714Z,98107.41
2018-05-01T14:27:48.308Z,98099.81
2018-05-01T14:30:14.814Z,98093.10
2018-05-01T14:32:41.419Z,98103.53
2018-05-01T14:35:07.904Z,98097.42
2018-05-01T14:37:34.967Z,98087.50
2018-05-01T14:40:02.193Z,98097.84
2018-05-01T14:42:28.606Z,98093.98
2018-05-01T14:44:55.034Z,98086.92
2018-05-01T14:47:21.459Z,98104.16
2018-05-01T14:49:47.910Z,98101.19
2018-05-01T14:52:14.480Z,98104.34
2018-05-01T14:54:40.978Z,98088.71
2018-05-01T14:57:07.420Z,98098.39
2018-05-01T14:59:33.857Z,98092.64
2018-05-01T15:02:00.494Z,98092.67
2018-05-01T15:04:26.972Z,98091.73
2018-05-01T15:06:54.336Z,98087.69
2018-05-01T15:09:20.864Z,98092.84
2018-05-01T15:11:48.005Z,98089.45
2018-05-01T15:14:15.160Z,98098.98
2018-05-01T15:16:42.468Z,98089.31
2018-05-01T15:19:08.939Z,98094.59
2018-05-01T15:21:36.169Z,98093.91
2018-05-01T15:24:02.681Z,98085.67
2018-05-01T15:26:29.247Z,98084.46
2018-05-01T15:28:55.700Z,98086.59
2018-05-01T15:31:23.276Z,98084.48
2018-05-01T15:33:50.536Z,98084.64
2018-05-01T15:36:17.004Z,98083.02
2018-05-01T15:38:43.501Z,98080.28
2018-05-01T15:41:09.927Z,98081.05
2018-05-01T15:43:37.117Z,98080.44
2018-05-01T15:46:03.712Z,98074.59
2018-05-01T15:48:38.815Z,98079.75
2018-05-01T15:51:05.595Z,98075.64
2018-05-01T15:53:32.008Z,98083.43
2018-05-01T15:55:59.239Z,98073.26
2018-05-01T15:58:25.659Z,98075.89
2018-05-01T16:00:52.255Z,98065.83
2018-05-01T16:03:18.955Z,98068.29
2018-05-01T16:05:45.342Z,98069.42
2018-05-01T16:08:11.781Z,98067.14
2018-05-01T16:10:38.309Z,98071.92
2018-05-01T16:13:04.854Z,98080.73
2018-05-01T16:15:31.412Z,98074.25
2018-05-01T16:18:04.959Z,98070.94
2018-05-01T16:20:31.353Z,98071.32
2018-05-01T16:22:57.960Z,98069.98
2018-05-01T16:25:24.411Z,98072.84
2018-05-01T16:27:51.373Z,98073.86
2018-05-01T16:30:18.868Z,98069.55
2018-05-01T16:32:45.449Z,98070.86
2018-05-01T16:35:11.865Z,98067.21
2018-05-01T16:37:38.255Z,98070.59
2018-05-01T16:40:05.428Z,98065.78
2018-05-01T16:42:31.969Z,98066.91
2018-05-01T16:44:58.359Z,98071.38
2018-05-01T16:47:25.531Z,98072.95
2018-05-01T16:49:51.973Z,98068.80
2018-05-01T16:52:18.536Z,98071.78
2018-05-01T16:54:46.063Z,98077.89
2018-05-01T16:57:12.505Z,98073.17
2018-05-01T16:59:38.932Z,98073.02
2018-05-01T17:02:05.482Z,98075.13
2018-05-01T17:04:31.940Z,98080.21
2018-05-01T17:06:58.442Z,98078.31
2018-05-01T17:09:24.856Z,98082.75
2018-05-01T17:11:52.131Z,98086.30
2018-05-01T17:14:20.120Z,98080.24
2018-05-01T17:16:47.405Z,98080.27
2018-05-01T17:19:13.940Z,98084.03
2018-05-01T17:21:40.450Z,98075.52
2018-05-01T17:24:08.102Z,98070.90
2018-05-01T17:26:34.570Z,98075.23
2018-05-01T17:29:01.091Z,98078.41
2018-05-01T17:31:27.615Z,98076.23
2018-05-01T17:33:54.066Z,98079.53
2018-05-01T17:36:20.540Z,98078.79
2018-05-01T17:38:46.967Z,98083.80
2018-05-01T17:41:13.428Z,98085.84
2018-05-01T17:43:39.943Z,98083.70
2018-05-01T17:46:06.476Z,98077.58
2018-05-01T17:48:32.911Z,98091.39
2018-05-01T17:50:59.336Z,98100.44
2018-05-01T17:53:25.875Z,98093.47
2018-05-01T17:55:52.384Z,98092.25
2018-05-01T17:58:19.666Z,98094.02
2018-05-01T18:00:46.148Z,98095.32
2018-05-01T18:03:12.606Z,98101.64
2018-05-01T18:05:39.815Z,98099.10
2018-05-01T18:08:06.244Z,98097.71
2018-05-01T18:10:32.968Z,98093.83
2018-05-01T18:12:59.531Z,98095.23
2018-05-01T18:15:26.015Z,98112.81
2018-05-01T18:17:53.165Z,98113.38
2018-05-01T18:20:20.366Z,98117.12
2018-05-01T18:22:46.764Z,98112.40
2018-05-01T18:25:13.232Z,98118.64
2018-05-01T18:27:39.797Z,98126.59
2018-05-01T18:30:06.250Z,98121.78
2018-05-01T18:32:33.649Z,98130.28
2018-05-01T18:35:00.499Z,98128.31
2018-05-01T18:37:26.952Z,98136.26
2018-05-01T18:39:53.871Z,98128.19
2018-05-01T18:42:21.136Z,98130.70
2018-05-01T18:44:47.780Z,98130.83
2018-05-01T18:47:14.493Z,98127.53
2018-05-01T18:49:40.944Z,98136.17
2018-05-01T18:52:07.762Z,98141.28
2018-05-01T18:54:35.125Z,98146.36
2018-05-01T18:57:01.580Z,98141.45
2018-05-01T18:59:28.354Z,98140.41
2018-05-01T19:01:55.538Z,98141.97
2018-05-01T19:04:22.510Z,98143.67
2018-05-01T19:06:49.156Z,98143.73
2018-05-01T19:09:15.668Z,98141.68
2018-05-01T19:11:42.223Z,98142.30
2018-05-01T19:14:08.915Z,98149.75
2018-05-01T19:16:36.451Z,98146.72
2018-05-01T19:19:03.941Z,98156.22
2018-05-01T19:21:30.814Z,98161.20
2018-05-01T19:23:57.742Z,98167.56
2018-05-01T19:26:24.462Z,98172.52
2018-05-01T19:28:51.137Z,98173.96
2018-05-01T19:31:18.480Z,98177.85
2018-05-01T19:33:45.486Z,98176.72
2018-05-01T19:36:12.861Z,98177.39
2018-05-01T19:38:39.425Z,98178.37
2018-05-01T19:41:05.875Z,98174.53
2018-05-01T19:43:33.125Z,98167.98
2018-05-01T19:45:59.942Z,98173.23
2018-05-01T19:48:26.428Z,98174.03
2018-05-01T19:50:53.837Z,98178.70
2018-05-01T19:53:20.353Z,98175.80
2018-05-01T19:55:47.036Z,98176.06
2018-05-01T19:58:14.325Z,98181.83
2018-05-01T20:00:41.313Z,98175.36
2018-05-01T20:03:08.903Z,98177.66
2018-05-01T20:05:35.277Z,98175.87
2018-05-01T20:08:01.734Z,98183.97
2018-05-01T20:10:28.177Z,98181.50
2018-05-01T20:12:54.723Z,98187.14
2018-05-01T20:15:21.281Z,98184.14
2018-05-01T20:17:47.770Z,98194.55
2018-05-01T20:20:14.323Z,98190.95
2018-05-01T20:22:41.113Z,98183.36
2018-05-01T20:25:07.527Z,98189.59
2018-05-01T20:27:33.933Z,98181.14
2018-05-01T20:30:00.677Z,98187.58
2018-05-01T20:32:27.290Z,98182.98
2018-05-01T20:34:53.796Z,98184.39
2018-05-01T20:37:20.193Z,98186.97
2018-05-01T20:39:47.824Z,98185.02
2018-05-01T20:42:14.295Z,98184.39
2018-05-01T20:44:41.424Z,98179.39
2018-05-01T20:47:07.849Z,98184.75
2018-05-01T20:49:34.284Z,98190.29
2018-05-01T20:52:00.991Z,98187.41
2018-05-01T20:54:27.389Z,98186.70
2018-05-01T20:56:54.600Z,98182.84
2018-05-01T20:59:21.032Z,98181.06
2018-05-01T21:01:47.629Z,98177.77
2018-05-01T21:04:14.121Z,98180.05
2018-05-01T21:06:40.501Z,98188.01
2018-05-01T21:09:06.963Z,98186.36
2018-05-01T21:11:33.355Z,98185.41
2018-05-01T21:14:00.636Z,98184.10
2018-05-01T21:16:27.066Z,98185.39
2018-05-01T21:18:53.451Z,98184.89
2018-05-01T21:21:20.599Z,98184.56
2018-05-01T21:23:46.996Z,98193.95
2018-05-01T21:26:13.481Z,98197.08
2018-05-01T21:28:40.659Z,98198.27
2018-05-01T21:31:07.070Z,98192.37
2018-05-01T21:33:34.259Z,98193.98
2018-05-01T21:36:00.740Z,98190.52
2018-05-01T21:38:27.893Z,98183.12
2018-05-01T21:40:55.010Z,98190.64
2018-05-01T21:43:21.450Z,98195.47
2018-05-01T21:45:48.435Z,98192.88
2018-05-01T21:48:16.934Z,98194.98
2018-05-01T21:50:43.664Z,98189.80
2018-05-01T21:53:10.527Z,98191.20
2018-05-01T21:55:36.923Z,98188.72
2018-05-01T21:58:04.153Z,98188.48
2018-05-01T22:00:30.600Z,98182.91
2018-05-01T22:02:57.736Z,98184.46
2018-05-01T22:05:24.416Z,98185.93
2018-05-01T22:07:50.932Z,98186.90
2018-05-01T22:10:17.420Z,98178.86
2018-05-01T22:12:43.865Z,98178.48
2018-05-01T22:15:10.554Z,98186.61
2018-05-01T22:17:36.937Z,98186.02
2018-05-01T22:20:03.330Z,98184.31
2018-05-01T22:22:29.800Z,98184.91
2018-05-01T22:24:56.231Z,98188.45
2018-05-01T22:27:22.921Z,98182.84
2018-05-01T22:29:49.420Z,98178.16
2018-05-01T22:32:15.839Z,98181.36
2018-05-01T22:34:42.832Z,98183.20
2018-05-01T22:37:10.134Z,98182.38
2018-05-01T22:39:36.550Z,98182.78
2018-05-01T22:42:02.991Z,98175.20
2018-05-01T22:44:29.395Z,98177.95
2018-05-01T22:46:57.368Z,98179.42
2018-05-01T22:49:23.794Z,98178.87
2018-05-01T22:51:50.332Z,98177.31
2018-05-01T22:54:16.736Z,98177.75
2018-05-01T22:56:43.953Z,98172.81
2018-05-01T22:59:10.343Z,98163.97
2018-05-01T23:01:36.788Z,98165.98
2018-05-01T23:04:03.341Z,98164.02
2018-05-01T23:06:30.019Z,98157.16
2018-05-01T23:08:57.141Z,98161.34
2018-05-01T23:11:23.674Z,98161.34
2018-05-01T23:13:50.123Z,98159.69
2018-05-01T23:16:16.511Z,98157.69
2018-05-01T23:18:42.959Z,98152.21
2018-05-01T23:21:09.667Z,98156.77
2018-05-01T23:23:36.091Z,98154.98
2018-05-01T23:26:03.237Z,98158.48
2018-05-01T23:28:30.424Z,98162.14
2018-05-01T23:30:56.966Z,98156.11
2018-05-01T23:33:23.386Z,98154.89
2018-05-01T23:35:49.796Z,98159.63
2018-05-01T23:38:16.290Z,98171.88
2018-05-01T23:40:42.808Z,98172.34
2018-05-01T23:43:09.521Z,98171.72
2018-05-01T23:45:36.177Z,98182.99
2018-05-01T23:48:02.599Z,98183.28
2018-05-01T23:50:29.327Z,98190.01
2018-05-01T23:52:56.069Z,98176.69
2018-05-01T23:55:22.648Z,98187.64
2018-05-01T23:57:49.505Z,98174.86
